createdAt,value
2019-04-28T00:02:05.368Z,12.18
2019-04-28T00:04:55.244Z,12.17
2019-04-28T00:07:45.264Z,12.15
2019-04-28T00:10:34.994Z,12.15
2019-04-28T00:13:24.731Z,12.14
2019-04-28T00:16:16.029Z,12.13
2019-04-28T00:19:05.591Z,12.12
2019-04-28T00:22:01.601Z,12.12
2019-04-28T00:25:01.903Z,12.13
2019-04-28T00:27:51.650Z,12.11
2019-04-28T00:30:41.937Z,12.13
2019-04-28T00:33:32.022Z,12.13
2019-04-28T00:36:22.023Z,12.12
2019-04-28T00:39:12.534Z,12.12
2019-04-28T00:42:03.340Z,12.09
2019-04-28T00:44:53.793Z,12.11
2019-04-28T00:47:43.729Z,12.11
2019-04-28T00:50:34.015Z,12.09
2019-04-28T00:53:23.755Z,12.09
2019-04-28T00:56:13.560Z,12.08
2019-04-28T00:59:04.000Z,12.09
2019-04-28T01:02:01.115Z,12.08
2019-04-28T01:04:51.509Z,12.06
2019-04-28T01:07:41.623Z,12.03
2019-04-28T01:10:32.236Z,12.03
2019-04-28T01:13:23.891Z,12.03
2019-04-28T01:16:21.609Z,12.01
2019-04-28T01:19:17.150Z,12.01
2019-04-28T01:22:11.504Z,12.02
2019-04-28T01:25:01.661Z,12.01
2019-04-28T01:27:55.441Z,12.01
2019-04-28T01:31:09.563Z,11.99
2019-04-28T01:34:19.850Z,11.97
2019-04-28T01:37:09.759Z,11.95
2019-04-28T01:40:00.018Z,11.91
2019-04-28T01:42:50.057Z,11.89
2019-04-28T01:45:41.623Z,11.87
2019-04-28T01:48:31.971Z,11.85
2019-04-28T01:51:21.789Z,11.84
2019-04-28T01:54:11.886Z,11.81
2019-04-28T01:57:02.351Z,11.79
2019-04-28T01:59:53.257Z,11.78
2019-04-28T02:02:42.957Z,11.77
2019-04-28T02:05:33.205Z,11.77
2019-04-28T02:08:22.991Z,11.76
2019-04-28T02:11:12.886Z,11.75
2019-04-28T02:14:02.892Z,11.74
2019-04-28T02:16:52.919Z,11.74
2019-04-28T02:19:42.487Z,11.72
2019-04-28T02:22:37.684Z,11.73
2019-04-28T02:25:27.694Z,11.71
2019-04-28T02:28:19.697Z,11.70
2019-04-28T02:31:11.524Z,11.68
2019-04-28T02:34:01.189Z,11.67
2019-04-28T02:36:54.012Z,11.66
2019-04-28T02:39:43.217Z,11.62
2019-04-28T02:42:32.894Z,11.55
2019-04-28T02:45:23.974Z,11.54
2019-04-28T02:48:21.146Z,11.52
2019-04-28T02:51:21.293Z,11.51
2019-04-28T02:54:11.425Z,11.51
2019-04-28T02:57:01.754Z,11.50
2019-04-28T02:59:51.398Z,11.49
2019-04-28T03:02:41.835Z,11.50
2019-04-28T03:05:33.525Z,11.49
2019-04-28T03:08:23.301Z,11.47
2019-04-28T03:11:13.480Z,11.47
2019-04-28T03:14:03.677Z,11.47
2019-04-28T03:16:53.687Z,11.47
2019-04-28T03:19:44.599Z,11.47
2019-04-28T03:22:34.634Z,11.46
2019-04-28T03:25:43.737Z,11.45
2019-04-28T03:28:47.320Z,11.46
2019-04-28T03:32:16.080Z,11.45
2019-04-28T03:34:47.188Z,11.46
2019-04-28T03:37:37.543Z,11.46
2019-04-28T03:40:27.682Z,11.44
2019-04-28T03:43:17.334Z,11.46
2019-04-28T03:46:12.861Z,11.47
2019-04-28T03:49:02.685Z,11.49
2019-04-28T03:51:52.881Z,11.49
2019-04-28T03:54:42.799Z,11.49
2019-04-28T03:57:32.751Z,11.50
2019-04-28T04:00:22.783Z,11.49
2019-04-28T04:03:12.622Z,11.51
2019-04-28T04:06:02.516Z,11.52
2019-04-28T04:08:52.408Z,11.55
2019-04-28T04:11:46.555Z,11.56
2019-04-28T04:14:55.204Z,11.55
2019-04-28T04:18:21.048Z,11.55
2019-04-28T04:21:12.216Z,11.58
2019-04-28T04:24:02.246Z,11.58
2019-04-28T04:26:53.377Z,11.61
2019-04-28T04:29:43.833Z,11.64
2019-04-28T04:32:33.882Z,11.63
2019-04-28T04:35:23.940Z,11.66
2019-04-28T04:38:14.165Z,11.66
2019-04-28T04:41:04.517Z,11.66
2019-04-28T04:43:54.569Z,11.66
2019-04-28T04:46:44.381Z,11.69
2019-04-28T04:49:34.699Z,11.72
2019-04-28T04:52:24.762Z,11.73
2019-04-28T04:55:15.544Z,11.76
2019-04-28T04:58:05.897Z,11.79
2019-04-28T05:01:05.653Z,11.81
2019-04-28T05:03:57.326Z,11.82
2019-04-28T05:06:47.267Z,11.83
2019-04-28T05:09:39.529Z,11.85
2019-04-28T05:12:30.638Z,11.85
2019-04-28T05:15:20.440Z,11.86
2019-04-28T05:18:10.751Z,11.89
2019-04-28T05:21:00.509Z,11.87
2019-04-28T05:24:15.822Z,11.90
2019-04-28T05:27:06.352Z,11.94
2019-04-28T05:29:56.763Z,11.91
2019-04-28T05:32:53.694Z,11.92
2019-04-28T05:35:39.730Z,11.93
2019-04-28T05:38:30.391Z,11.95
2019-04-28T05:41:20.114Z,11.98
2019-04-28T05:44:10.370Z,12.01
2019-04-28T05:47:00.396Z,12.02
2019-04-28T05:49:56.610Z,12.07
2019-04-28T05:53:05.631Z,12.11
2019-04-28T05:56:20.336Z,12.19
2019-04-28T05:59:15.212Z,12.25
2019-04-28T06:02:10.590Z,12.31
2019-04-28T06:05:00.708Z,12.39
2019-04-28T06:07:59.629Z,12.50
2019-04-28T06:10:49.880Z,12.59
2019-04-28T06:13:40.412Z,12.70
2019-04-28T06:16:30.636Z,12.83
2019-04-28T06:19:20.608Z,12.93
2019-04-28T06:22:10.556Z,13.06
2019-04-28T06:25:00.565Z,13.20
2019-04-28T06:27:50.384Z,13.27
2019-04-28T06:30:40.563Z,13.29
2019-04-28T06:33:30.607Z,13.28
2019-04-28T06:36:20.875Z,13.31
2019-04-28T06:39:11.665Z,13.28
2019-04-28T06:42:01.738Z,13.31
2019-04-28T06:44:51.381Z,13.34
2019-04-28T06:47:41.207Z,13.37
2019-04-28T06:50:31.040Z,13.40
2019-04-28T06:53:20.787Z,13.36
2019-04-28T06:56:11.303Z,13.31
2019-04-28T06:59:01.109Z,13.25
2019-04-28T07:01:51.030Z,13.18
2019-04-28T07:04:40.886Z,13.15
2019-04-28T07:07:30.827Z,13.12
2019-04-28T07:10:21.027Z,13.06
2019-04-28T07:13:10.703Z,13.04
2019-04-28T07:16:01.751Z,13.00
2019-04-28T07:18:51.534Z,13.00
2019-04-28T07:21:50.587Z,13.01
2019-04-28T07:24:40.914Z,13.00
2019-04-28T07:27:30.136Z,13.02
2019-04-28T07:30:20.111Z,13.02
2019-04-28T07:33:10.455Z,13.02
2019-04-28T07:36:00.271Z,13.04
2019-04-28T07:38:50.065Z,13.07
2019-04-28T07:41:40.294Z,13.13
2019-04-28T07:44:30.325Z,13.18
2019-04-28T07:47:20.480Z,13.20
2019-04-28T07:50:10.713Z,13.19
2019-04-28T07:53:07.291Z,13.19
2019-04-28T07:55:57.134Z,13.19
2019-04-28T07:58:47.339Z,13.21
2019-04-28T08:01:37.286Z,13.25
2019-04-28T08:04:27.432Z,13.30
2019-04-28T08:07:17.008Z,13.33
2019-04-28T08:10:07.472Z,13.34
2019-04-28T08:12:57.206Z,13.38
2019-04-28T08:15:46.785Z,13.44
2019-04-28T08:18:37.150Z,13.48
2019-04-28T08:21:26.782Z,13.52
2019-04-28T08:24:17.052Z,13.61
2019-04-28T08:27:07.109Z,13.70
2019-04-28T08:29:58.692Z,13.72
2019-04-28T08:32:56.385Z,13.77
2019-04-28T08:35:46.095Z,13.81
2019-04-28T08:38:35.792Z,13.86
2019-04-28T08:41:25.900Z,13.93
2019-04-28T08:44:15.543Z,14.02
2019-04-28T08:47:05.277Z,14.12
2019-04-28T08:49:55.065Z,14.18
2019-04-28T08:52:44.968Z,14.26
2019-04-28T08:55:34.899Z,14.40
2019-04-28T08:58:25.104Z,14.55
2019-04-28T09:01:15.056Z,14.78
2019-04-28T09:04:15.100Z,14.95
2019-04-28T09:06:56.251Z,15.06
2019-04-28T09:09:46.009Z,15.16
2019-04-28T09:12:35.750Z,15.33
2019-04-28T09:15:25.939Z,15.39
2019-04-28T09:18:15.886Z,15.45
2019-04-28T09:21:06.173Z,15.44
2019-04-28T09:23:55.844Z,15.34
2019-04-28T09:26:46.171Z,15.33
2019-04-28T09:29:36.413Z,15.28
2019-04-28T09:32:26.634Z,15.27
2019-04-28T09:35:16.698Z,15.31
2019-04-28T09:38:08.891Z,15.36
2019-04-28T09:40:59.565Z,15.43
2019-04-28T09:44:07.141Z,15.44
2019-04-28T09:46:57.241Z,15.51
2019-04-28T09:49:46.478Z,15.72
2019-04-28T09:52:36.196Z,15.97
2019-04-28T09:55:26.335Z,16.22
2019-04-28T09:58:16.184Z,16.36
2019-04-28T10:01:06.610Z,16.46
2019-04-28T10:03:56.846Z,16.67
2019-04-28T10:06:47.272Z,16.89
2019-04-28T10:09:36.903Z,17.08
2019-04-28T10:12:27.584Z,17.34
2019-04-28T10:15:17.706Z,17.62
2019-04-28T10:18:07.848Z,17.93
2019-04-28T10:20:57.523Z,18.13
2019-04-28T10:23:47.183Z,18.35
2019-04-28T10:26:36.955Z,18.48
2019-04-28T10:29:27.422Z,19.06
2019-04-28T10:32:17.348Z,19.46
2019-04-28T10:35:09.704Z,19.90
2019-04-28T10:37:59.687Z,20.21
2019-04-28T10:40:55.157Z,19.94
2019-04-28T10:43:44.581Z,19.63
2019-04-28T10:46:34.696Z,19.65
2019-04-28T10:49:25.221Z,20.46
2019-04-28T10:52:14.984Z,21.70
2019-04-28T10:55:06.213Z,22.97
2019-04-28T10:57:55.849Z,23.34
2019-04-28T11:00:45.411Z,23.00
2019-04-28T11:03:35.511Z,22.37
2019-04-28T11:06:25.717Z,21.65
2019-04-28T11:09:30.312Z,21.05
2019-04-28T11:12:21.957Z,20.63
2019-04-28T11:15:30.238Z,20.55
2019-04-28T11:18:20.514Z,20.95
2019-04-28T11:21:10.550Z,20.95
2019-04-28T11:24:00.909Z,20.66
2019-04-28T11:26:51.213Z,20.31
2019-04-28T11:29:42.555Z,19.90
2019-04-28T11:32:32.125Z,19.55
2019-04-28T11:35:27.321Z,19.27
2019-04-28T11:38:18.580Z,19.08
2019-04-28T11:41:11.518Z,18.95
2019-04-28T11:44:00.683Z,18.86
2019-04-28T11:46:50.945Z,18.98
2019-04-28T11:49:41.839Z,19.10
2019-04-28T11:52:31.194Z,19.37
2019-04-28T11:55:21.084Z,19.66
2019-04-28T11:58:11.267Z,19.96
2019-04-28T12:01:01.686Z,20.30
2019-04-28T12:03:54.688Z,20.68
2019-04-28T12:06:43.963Z,20.79
2019-04-28T12:09:41.519Z,20.68
2019-04-28T12:12:49.282Z,20.52
2019-04-28T12:16:10.257Z,20.40
2019-04-28T12:19:08.915Z,20.48
2019-04-28T12:21:58.826Z,20.62
2019-04-28T12:24:48.941Z,20.83
2019-04-28T12:27:38.867Z,21.04
2019-04-28T12:30:28.619Z,21.08
2019-04-28T12:33:18.800Z,21.01
2019-04-28T12:36:09.778Z,20.95
2019-04-28T12:38:59.655Z,20.81
2019-04-28T12:41:49.594Z,20.75
2019-04-28T12:44:38.812Z,20.87
2019-04-28T12:47:28.662Z,21.01
2019-04-28T12:50:37.571Z,21.07
2019-04-28T12:53:27.673Z,21.03
2019-04-28T12:56:17.502Z,21.04
2019-04-28T12:59:13.891Z,21.18
2019-04-28T13:02:09.828Z,21.30
2019-04-28T13:05:02.109Z,21.41
2019-04-28T13:07:53.539Z,21.74
2019-04-28T13:10:43.178Z,22.00
2019-04-28T13:13:32.984Z,22.14
2019-04-28T13:16:22.719Z,22.14
2019-04-28T13:19:12.552Z,21.98
2019-04-28T13:22:05.354Z,21.87
2019-04-28T13:24:54.242Z,21.86
2019-04-28T13:27:44.231Z,21.82
2019-04-28T13:30:33.857Z,21.76
2019-04-28T13:33:23.897Z,21.71
2019-04-28T13:36:15.056Z,21.67
2019-04-28T13:39:09.760Z,21.58
2019-04-28T13:41:59.519Z,21.47
2019-04-28T13:45:11.975Z,21.33
2019-04-28T13:48:01.778Z,21.27
2019-04-28T13:50:51.690Z,21.25
2019-04-28T13:53:41.603Z,21.30
2019-04-28T13:56:31.301Z,21.30
2019-04-28T13:59:21.334Z,21.29
2019-04-28T14:02:20.140Z,21.21
2019-04-28T14:05:29.180Z,21.18
2019-04-28T14:08:18.653Z,21.18
2019-04-28T14:11:08.532Z,21.18
2019-04-28T14:13:58.687Z,21.16
2019-04-28T14:16:48.514Z,21.18
2019-04-28T14:19:38.158Z,21.15
2019-04-28T14:22:28.081Z,21.15
2019-04-28T14:25:17.240Z,21.16
2019-04-28T14:28:07.458Z,21.22
2019-04-28T14:30:57.536Z,21.28
2019-04-28T14:33:47.271Z,21.36
2019-04-28T14:36:42.115Z,21.41
2019-04-28T14:39:28.930Z,21.44
2019-04-28T14:42:19.047Z,21.50
2019-04-28T14:45:09.502Z,21.53
2019-04-28T14:47:59.601Z,21.64
2019-04-28T14:50:50.824Z,21.68
2019-04-28T14:53:40.850Z,21.63
2019-04-28T14:56:49.946Z,21.57
2019-04-28T14:59:39.776Z,21.51
2019-04-28T15:02:51.737Z,21.36
2019-04-28T15:05:58.788Z,21.18
2019-04-28T15:09:10.805Z,21.03
2019-04-28T15:12:04.514Z,20.78
2019-04-28T15:14:54.289Z,20.64
2019-04-28T15:17:44.415Z,20.51
2019-04-28T15:20:34.654Z,20.42
2019-04-28T15:23:25.023Z,20.39
2019-04-28T15:26:14.779Z,20.36
2019-04-28T15:29:04.865Z,20.32
2019-04-28T15:31:55.283Z,20.25
2019-04-28T15:34:44.398Z,20.17
2019-04-28T15:37:34.896Z,20.04
2019-04-28T15:40:24.964Z,19.91
2019-04-28T15:43:14.262Z,19.77
2019-04-28T15:46:04.473Z,19.64
2019-04-28T15:48:54.501Z,19.53
2019-04-28T15:51:44.509Z,19.48
2019-04-28T15:54:36.131Z,19.44
2019-04-28T15:57:25.853Z,19.35
2019-04-28T16:00:16.269Z,19.32
2019-04-28T16:03:06.140Z,19.30
2019-04-28T16:05:56.235Z,19.20
2019-04-28T16:08:46.155Z,19.17
2019-04-28T16:11:36.022Z,19.12
2019-04-28T16:14:25.890Z,19.11
2019-04-28T16:17:15.968Z,19.04
2019-04-28T16:20:06.301Z,19.00
2019-04-28T16:22:55.979Z,18.95
2019-04-28T16:25:46.006Z,18.88
2019-04-28T16:28:36.014Z,18.79
2019-04-28T16:31:25.827Z,18.78
2019-04-28T16:34:15.700Z,18.77
2019-04-28T16:37:05.874Z,18.74
2019-04-28T16:39:55.872Z,18.66
2019-04-28T16:42:46.055Z,18.64
2019-04-28T16:45:36.465Z,18.64
2019-04-28T16:48:26.497Z,18.61
2019-04-28T16:51:16.615Z,18.60
2019-04-28T16:54:06.386Z,18.55
2019-04-28T16:57:20.998Z,18.46
2019-04-28T17:00:19.733Z,18.41
2019-04-28T17:03:09.776Z,18.29
2019-04-28T17:05:59.526Z,18.18
2019-04-28T17:08:49.494Z,18.11
2019-04-28T17:11:39.711Z,18.03
2019-04-28T17:14:30.638Z,17.94
2019-04-28T17:17:20.280Z,17.91
2019-04-28T17:20:10.584Z,17.84
2019-04-28T17:23:00.174Z,17.78
2019-04-28T17:25:50.463Z,17.72
2019-04-28T17:28:40.795Z,17.63
2019-04-28T17:31:30.889Z,17.54
2019-04-28T17:34:20.833Z,14.98
2019-04-28T17:37:11.487Z,17.40
2019-04-28T17:40:00.686Z,17.34
2019-04-28T17:42:52.362Z,17.29
2019-04-28T17:45:42.210Z,17.23
2019-04-28T17:48:35.569Z,17.17
2019-04-28T17:51:24.982Z,17.11
2019-04-28T17:54:14.453Z,17.09
2019-04-28T17:57:06.396Z,17.07
2019-04-28T17:59:58.275Z,17.07
2019-04-28T18:03:13.656Z,17.05
2019-04-28T18:06:18.160Z,17.00
2019-04-28T18:09:07.342Z,16.94
2019-04-28T18:11:58.537Z,16.89
2019-04-28T18:14:50.637Z,16.85
2019-04-28T18:18:08.632Z,16.79
2019-04-28T18:20:58.565Z,16.71
2019-04-28T18:23:48.271Z,16.64
2019-04-28T18:26:37.911Z,16.56
2019-04-28T18:29:27.879Z,16.50
2019-04-28T18:32:45.202Z,16.41
2019-04-28T18:35:54.015Z,16.33
2019-04-28T18:38:51.958Z,16.24
2019-04-28T18:41:48.233Z,16.15
2019-04-28T18:44:38.827Z,16.07
2019-04-28T18:47:28.908Z,16.02
2019-04-28T18:50:18.659Z,15.96
2019-04-28T18:53:08.764Z,15.88
2019-04-28T18:55:58.901Z,15.80
2019-04-28T18:58:48.683Z,15.74
2019-04-28T19:01:47.550Z,15.67
2019-04-28T19:04:40.475Z,15.61
2019-04-28T19:07:50.588Z,15.53
2019-04-28T19:10:48.064Z,15.45
2019-04-28T19:13:42.407Z,15.37
2019-04-28T19:16:51.924Z,15.29
2019-04-28T19:19:42.103Z,15.24
2019-04-28T19:22:34.598Z,15.19
2019-04-28T19:25:24.783Z,15.13
2019-04-28T19:28:14.633Z,15.07
2019-04-28T19:31:04.321Z,15.03
2019-04-28T19:33:54.665Z,14.99
2019-04-28T19:36:43.830Z,14.94
2019-04-28T19:39:33.949Z,14.88
2019-04-28T19:42:23.736Z,14.81
2019-04-28T19:45:15.353Z,14.78
2019-04-28T19:48:05.485Z,14.73
2019-04-28T19:50:55.409Z,14.68
2019-04-28T19:53:45.537Z,14.64
2019-04-28T19:56:54.227Z,14.58
2019-04-28T20:00:01.747Z,14.54
2019-04-28T20:02:53.355Z,14.49
2019-04-28T20:05:43.335Z,14.42
2019-04-28T20:08:33.554Z,14.36
2019-04-28T20:11:24.704Z,14.30
2019-04-28T20:14:14.956Z,14.25
2019-04-28T20:17:04.824Z,14.22
2019-04-28T20:19:54.543Z,14.18
2019-04-28T20:22:44.300Z,14.15
2019-04-28T20:25:34.319Z,14.11
2019-04-28T20:28:24.345Z,14.08
2019-04-28T20:31:14.668Z,14.05
2019-04-28T20:34:04.261Z,14.04
2019-04-28T20:37:02.951Z,14.00
2019-04-28T20:39:58.182Z,13.95
2019-04-28T20:42:58.223Z,13.90
2019-04-28T20:45:48.592Z,13.89
2019-04-28T20:48:37.995Z,13.86
2019-04-28T20:51:28.840Z,13.83
2019-04-28T20:54:19.006Z,13.82
2019-04-28T20:57:09.353Z,13.80
2019-04-28T20:59:59.267Z,13.78
2019-04-28T21:02:49.401Z,13.79
2019-04-28T21:05:39.137Z,13.77
2019-04-28T21:08:28.683Z,13.76
2019-04-28T21:11:19.401Z,13.76
2019-04-28T21:14:09.182Z,13.76
2019-04-28T21:16:58.625Z,13.76
2019-04-28T21:19:48.812Z,13.76
2019-04-28T21:22:38.984Z,13.74
2019-04-28T21:25:28.922Z,13.74
2019-04-28T21:28:19.020Z,13.72
2019-04-28T21:31:09.088Z,13.69
2019-04-28T21:33:59.689Z,13.67
2019-04-28T21:36:50.640Z,13.65
2019-04-28T21:39:40.397Z,13.62
2019-04-28T21:42:49.033Z,13.61
2019-04-28T21:46:01.444Z,13.58
2019-04-28T21:48:53.475Z,13.54
2019-04-28T21:51:43.271Z,13.48
2019-04-28T21:54:33.371Z,13.44
2019-04-28T21:57:23.918Z,13.41
2019-04-28T22:00:15.272Z,13.36
2019-04-28T22:03:23.665Z,13.31
2019-04-28T22:06:14.017Z,13.26
2019-04-28T22:09:05.710Z,13.22
2019-04-28T22:11:57.392Z,13.16
2019-04-28T22:14:47.340Z,13.14
2019-04-28T22:17:37.479Z,13.12
2019-04-28T22:20:27.051Z,13.12
2019-04-28T22:23:21.970Z,13.10
2019-04-28T22:26:30.933Z,13.09
2019-04-28T22:29:20.819Z,13.07
2019-04-28T22:32:11.170Z,13.04
2019-04-28T22:35:19.849Z,13.00
2019-04-28T22:38:09.716Z,13.00
2019-04-28T22:40:59.516Z,12.98
2019-04-28T22:43:49.455Z,12.96
2019-04-28T22:46:39.586Z,12.93
2019-04-28T22:49:29.668Z,12.91
2019-04-28T22:52:19.805Z,12.86
2019-04-28T22:55:18.286Z,12.85
2019-04-28T22:58:20.964Z,12.84
2019-04-28T23:01:21.486Z,12.81
2019-04-28T23:04:24.833Z,12.80
2019-04-28T23:07:15.240Z,12.76
2019-04-28T23:10:06.448Z,12.73
2019-04-28T23:12:56.850Z,12.72
2019-04-28T23:15:46.926Z,12.71
2019-04-28T23:18:37.504Z,12.69
2019-04-28T23:21:36.430Z,12.66
2019-04-28T23:24:26.196Z,12.64
2019-04-28T23:27:17.718Z,12.66
2019-04-28T23:30:09.502Z,12.64
2019-04-28T23:32:59.380Z,12.60
2019-04-28T23:35:49.172Z,12.58
2019-04-28T23:38:38.973Z,12.57
2019-04-28T23:41:54.023Z,12.56
2019-04-28T23:44:43.999Z,12.54
2019-04-28T23:47:33.936Z,12.49
2019-04-28T23:50:30.625Z,12.47
2019-04-28T23:53:39.422Z,12.44
2019-04-28T23:56:29.224Z,12.42
2019-04-28T23:59:19.094Z,12.39
